NCAR-RAP Real-Time Weather Data

Output produced by METARs form (17 December 2018  14:30 UTC)
found at http://weather.rap.ucar.edu/surface/
 
Conditions at: KHQZ observed 17 December 2018  13:50 UTC
Temperature: 6.0°C (43°F)
Dewpoint: 3.0°C (37°F) [RH = 81%]
Pressure (altimeter): 30.26 inches Hg (1024.8 mb)
Winds: calm
Visibility: 10 or more miles (16+ km)
Ceiling: at least 12,000 feet AGL
Clouds: sky clear below 12,000 feet AGL
Present Weather: no significant weather observed at this time
KHQZ 171350Z 00000KT 10SM CLR 06/03 A3026